Terminal Aerodrome Forecast
Issued by NWS

Home | Current Version | Previous Version | Text Only | Print | Product List | Glossary On
Versions: 1 2 3 4 5 6 7 8 9 10 11 12 13 14 15 16 17 18 19 20 21 22
000
FTUS43 KPAH 270520
TAFCGI
TAF
KCGI 270520Z 2706/2806 18008KT P6SM -SHRA SCT060 BKN110
      TEMPO 2706/2708 5SM SHRA BR BKN060
     FM271400 16007KT 6SM -SHRA BR BKN030
     FM271900 18010G17KT P6SM BKN040
     FM280000 17008KT P6SM SCT050 BKN150=

USA.gov is the U.S. government's official web portal to all federal, state and local government web resources and services.